Historyczne dane pomiarowe

Dodano dane terminowe – wersja testowa.

Dane z okresu 1951-2019

Wersja bazy: 1.34 [2019-03-16, lista zmian], aktualizacja planowana na 2019-04-15

Dane meteo z obszaru Polski uzyskane na podstawie danych udostępnionych przez Instytut Meteorologii i Gospodarki Wodnej – Państwowy Instytut Badawczy.

 

Wybierz Datę:    

       

TemperaturaWilgotnośćWiatrCiśnienieOpadyŚniegCzas trwania zjawisk
 Stacja t tx tn tng RH VA  wxwx mslp ppp RRR   cm mm wxwxwxwxwxwxwx
1999-08-14 15.1 20.2 11.2 9.7 79.3- 4.7 2.0---- 0.0------------
1999-08-13 14.8 19.1 12.1 9.7 87.5- 7.0 2.3---- 12.3------------
1999-08-12 16.7 22.4 12.0 9.9 79.0- 2.7 1.7---- 9.6------------
1999-08-11 17.6 22.9 12.8 10.4 83.3- 3.7 1.7---- 6.2------------
1999-08-10 19.3 24.7 13.6 10.4 84.5- 6.0 1.3---- 22.7------------
1999-08-09 22.8 28.5 18.7 15.9 83.8- 6.3 3.3---- 7.9------------
1999-08-08 20.2 25.0 16.3 11.9 85.0- 6.0 2.0---- 4.7------------
1999-08-07 20.7 28.0 13.2 8.8 65.8- 1.7 2.3---- 0.5------------
1999-08-06 20.9 29.4 14.5 9.5 63.8- 3.7 1.7---- 0.0------------
1999-08-05 19.0 28.2 10.0 4.9 66.0- 1.0 1.3---- 0.0------------
1999-08-04 17.9 26.2 10.2 5.3 67.5- 0.7 1.7---- 0.0------------
1999-08-03 19.8 26.4 10.5 5.0 58.3- 0.3 2.7---- 0.0------------
1999-08-02 19.2 26.7 12.6 5.9 63.8- 0.0 2.7---- 0.0------------
1999-08-01 19.2 25.2 13.0 6.3 63.8- 1.0 3.3---- 0.0------------
1999-07-31 19.7 26.9 12.2 6.9 67.8- 1.3 3.7---- 0.0------------
1999-07-30 18.8 25.4 12.0 6.6 67.5- 0.3 4.0---- 0.0------------
1999-07-29 18.1 24.4 10.0 5.4 67.8- 2.0 3.7---- 0.0------------
1999-07-28 18.1 23.4 12.7 8.5 58.8- 0.7 3.0---- 0.0------------
1999-07-27 15.5 21.9 8.5 4.2 73.3- 3.3 3.3---- 0.0------------
1999-07-26 17.7 22.1 14.5 10.4 79.3- 5.7 3.0---- 0.0------------
1999-07-25 19.6 24.8 15.4 13.4 78.5- 6.3 3.0---- 0.0------------
1999-07-24 17.8 22.4 13.5 11.4 76.5- 5.0 2.3---- 0.0------------
1999-07-23 18.6 23.3 11.8 7.4 62.0- 3.3 2.3---- 1.5------------
1999-07-22 18.3 21.9 14.9 10.8 64.8- 4.0 3.0---- 0.0------------
1999-07-21 21.4 28.1 17.6 15.7 79.0- 3.3 3.3---- 1.0------------
1999-07-20 22.1 30.3 14.4 9.8 70.3- 2.0 1.3---- 2.7------------
1999-07-19 19.3 26.0 12.6 9.9 77.3- 0.0 1.3---- 0.0------------
1999-07-18 19.0 25.9 12.9 10.0 83.8- 4.7 2.0---- 2.6------------
1999-07-17 16.7 23.1 10.9 7.0 75.0- 5.3 2.3---- 3.8------------
1999-07-16 16.9 22.1 10.9 6.9 65.5- 3.3 1.7---- 0.2------------
1999-07-15 17.5 20.9 15.4 14.9 84.3- 6.7 2.0---- 4.3------------
1999-07-14 21.0 26.8 18.9 15.4 80.8- 4.3 2.7---- 6.8------------
1999-07-13 23.1 28.2 17.5 13.2 68.5- 3.0 3.3---- 0.0------------
1999-07-12 21.6 27.9 14.3 9.1 64.3- 2.7 2.3---- 0.0------------
1999-07-11 21.2 27.6 13.1 7.8 61.5- 0.0 2.0---- 0.0------------
1999-07-10 20.0 24.9 12.6 9.9 57.0- 0.0 4.7---- 0.0------------
1999-07-09 17.6 22.4 13.2 11.5 72.8- 2.0 5.3---- 0.0------------
1999-07-08 17.4 20.0 15.1 14.0 89.0- 7.0 3.7---- 41.0------------
1999-07-07 18.1 21.8 15.5 15.0 81.8- 8.0 2.7---- 0.0------------
1999-07-06 23.7 30.0 19.3 15.2 73.0- 4.0 3.0---- 12.4------------
1999-07-05 24.5 31.9 16.7 13.1 70.8- 0.0 3.0---- 0.0------------
1999-07-04 22.2 29.7 15.3 11.4 71.3- 3.3 3.3---- 0.2------------
1999-07-03 19.7 25.0 13.3 12.0 73.5- 1.3 1.3---- 0.0------------
1999-07-02 17.8 21.9 13.9 13.6 75.8- 5.3 1.7---- 0.0------------
1999-07-01 18.9 26.1 12.6 9.7 78.3- 3.7 2.0---- 3.9------------
1999-06-30 19.3 25.0 12.6 8.6 68.0- 1.3 2.0---- 0.0------------
1999-06-29 19.7 26.8 13.9 12.4 68.3- 2.3 1.7---- 0.0------------
1999-06-28 22.2 28.0 15.4 11.1 60.3- 1.0 2.7---- 13.8------------
1999-06-27 20.2 26.3 11.9 7.8 61.8- 1.3 4.3---- 0.0------------
1999-06-26 14.5 20.1 8.5 5.5 71.8- 5.0 2.3---- 0.9------------
1999-06-25 13.3 16.9 9.4 6.3 79.3- 6.0 1.3---- 7.8------------
1999-06-24 12.9 17.4 9.4 8.5 77.0- 5.3 2.3---- 0.0------------
1999-06-23 11.1 13.5 9.0 8.6 89.8- 8.0 3.3---- 6.7------------
1999-06-22 12.2 13.5 11.4 11.0 88.8- 8.0 5.7---- 11.9------------
1999-06-21 16.9 22.1 13.5 13.3 83.3- 5.3 4.3---- 6.1------------
1999-06-20 19.5 24.8 15.1 15.0 66.0- 5.3 2.3---- 0.0------------
1999-06-19 20.6 25.7 14.5 12.4 77.8- 4.3 2.0---- 7.0------------
1999-06-18 17.7 22.1 12.1 9.4 68.0- 2.3 4.0---- 0.2------------
1999-06-17 18.2 22.2 14.3 11.9 76.3- 5.3 2.7---- 0.0------------
1999-06-16 17.1 21.2 13.3 13.0 73.5- 5.7 3.7---- 0.0------------
554.5 ms

 

Źródłem pochodzenia danych jest Instytut Meteorologii i Gospodarki Wodnej – Państwowy Instytut Badawczy. Dane Instytutu Meteorologii i Gospodarki Wodnej – Państwowego Instytutu Badawczego zostały przetworzone.

Dane źródłowe można odnaleźć na stronie https://dane.imgw.pl